Flight Track Log - Related Links

Times and Time Zones

All times are in EDT time to prevent confusion due to time zone crossing. See the ACA831 flight status page for this flight to view local times or setup timezone preferences in your user account.

Time Position Orientation Groundspeed Altitude Reporting Facility
EDT Latitude Longitude Course Direction KTS MPH feet Rate Location/Type
Thu 06:25:07 AM 46.2480 6.1260 45° Northeast 162 186 2,400  Level FlightAware ADS-B
Thu 06:25:22 AM 46.2550 6.1360 45° Northeast 167 192 2,900 2,300 Climbing FlightAware ADS-B
Thu 06:26:07 AM 46.2810 6.1760 47° Northeast 181 208 4,700 2,100 Climbing FlightAware ADS-B
Thu 06:26:22 AM 46.2910 6.1900 44° Northeast 202 232 5,000 1,527 Climbing FlightAware ADS-B
Thu 06:27:02 AM 46.3200 6.2330 46° Northeast 247 284 6,100 2,000 Climbing FlightAware ADS-B
Thu 06:27:22 AM 46.3390 6.2610 45° Northeast 273 314 7,000 2,836 Climbing FlightAware ADS-B
Thu 06:27:57 AM 46.3700 6.3080 46° Northeast 287 330 8,700 2,743 Climbing FlightAware ADS-B
Thu 06:28:32 AM 46.4140 6.3310 20° North 303 349 10,200 2,291 Climbing FlightAware ADS-B
Thu 06:28:52 AM 46.4410 6.3260 353° North 321 369 10,800 2,640 Climbing FlightAware ADS-B
Thu 06:29:22 AM 46.4820 6.3110 346° North 323 372 12,400 3,100 Climbing FlightAware ADS-B
Thu 06:29:52 AM 46.5300 6.3070 357° North 333 383 13,900 1,906 Climbing FlightAware ADS-B
Thu 06:30:47 AM 46.6230 6.2970 356° North 387 445 15,100 2,018 Climbing FlightAware ADS-B
Thu 06:31:42 AM 46.7230 6.2870 356° North 397 457 17,600 2,925 Climbing FlightAware ADS-B
Thu 06:32:07 AM 46.7850 6.2900 North 403 464 19,000 2,829 Climbing FlightAware ADS-B
Thu 06:32:52 AM 46.8700 6.2950 North 418 481 20,900 2,480 Climbing FlightAware ADS-B
Thu 06:33:22 AM 46.9280 6.2980 North 415 478 22,100 1,875 Climbing FlightAware ADS-B
Thu 06:34:12 AM 47.0210 6.2910 357° North 429 494 23,400 1,341 Climbing FlightAware ADS-B
Thu 06:34:47 AM 47.0890 6.2460 336° Northwest 437 503 24,000 800 Climbing FlightAware ADS-B
Thu 06:35:12 AM 47.1300 6.1820 313° West 434 499 24,200 923 Climbing FlightAware ADS-B
Thu 06:35:52 AM 47.1720 6.0820 302° West 453 521 25,000 1,482 Climbing FlightAware ADS-B
Thu 06:36:37 AM 47.2210 5.9690 303° West 463 533 26,300 1,765 Climbing FlightAware ADS-B
Thu 06:37:17 AM 47.2670 5.8600 302° West 471 542 27,500 2,025 Climbing FlightAware ADS-B
Thu 06:37:57 AM 47.3130 5.7490 301° West 472 543 29,000 2,175 Climbing FlightAware ADS-B
Thu 06:38:37 AM 47.3580 5.6420 302° West 468 539 30,400 1,976 Climbing FlightAware ADS-B
Thu 06:39:22 AM 47.4100 5.5190 302° West 468 539 31,800 1,129 Climbing FlightAware ADS-B
Thu 06:40:02 AM 47.4560 5.4080 302° West 471 542 32,000 141 Climbing FlightAware ADS-B
Thu 06:40:47 AM 47.5050 5.2890 301° West 465 535 32,000  Level FlightAware ADS-B
Thu 06:41:27 AM 47.5500 5.1820 302° West 460 529 32,000  Level FlightAware ADS-B
Thu 06:42:02 AM 47.5910 5.0830 302° West 459 528 32,000  Level FlightAware ADS-B
Thu 06:42:52 AM 47.6440 4.9510 301° West 458 527 32,000  Level FlightAware ADS-B
Thu 06:43:37 AM 47.6900 4.8400 302° West 458 527 32,000  Level FlightAware ADS-B
Thu 06:44:17 AM 47.7370 4.7240 301° West 457 526 32,000  Level FlightAware ADS-B
Thu 06:44:57 AM 47.7780 4.6240 301° West 456 525 32,000  Level FlightAware ADS-B
Thu 06:45:42 AM 47.8310 4.4930 301° West 456 525 32,000  Level FlightAware ADS-B
Thu 06:46:22 AM 47.8700 4.3940 300° West 457 526 32,000  Level FlightAware ADS-B
Thu 06:47:07 AM 47.9190 4.2720 301° West 459 528 32,000  Level FlightAware ADS-B
Thu 06:47:47 AM 47.9630 4.1650 302° West 462 532 32,000  Level FlightAware ADS-B
Thu 06:48:27 AM 48.0090 4.0490 301° West 464 534 32,000  Level FlightAware ADS-B
Thu 06:49:07 AM 48.0520 3.9400 301° West 466 536 32,000  Level FlightAware ADS-B
Thu 06:49:47 AM 48.0980 3.8250 301° West 468 539 32,000  Level FlightAware ADS-B
Thu 06:50:32 AM 48.1450 3.7050 300° West 470 541 32,000  Level FlightAware ADS-B
Thu 06:51:12 AM 48.1910 3.5880 301° West 472 543 32,000  Level FlightAware ADS-B
Thu 06:51:57 AM 48.2400 3.4620 300° West 474 545 32,000  Level FlightAware ADS-B
Thu 06:52:42 AM 48.2910 3.3290 300° West 475 547 32,000  Level FlightAware ADS-B
Thu 06:53:22 AM 48.3350 3.2150 300° West 475 547 32,000  Level FlightAware ADS-B
Thu 06:54:01 AM 48.3798 3.0981 300° West 473 544 32,000  Level FlightAware ADS-B
Thu 06:54:27 AM 48.4068 3.0240 299° West 469 540 32,000  Level FlightAware ADS-B
Thu 06:55:21 AM 48.4379 2.8578 286° West 468 539 32,000  Level FlightAware ADS-B
Thu 06:55:29 AM 48.4416 2.8331 283° West 457 526 32,000  Level FlightAware ADS-B
Thu 06:56:00 AM 48.4566 2.7399 284° West 457 526 32,000  Level FlightAware ADS-B
Thu 06:56:52 AM 48.4820 2.5940 285° West 457 526 32,000  Level FlightAware ADS-B
Thu 06:56:57 AM 48.4875 2.5628 285° West 458 527 32,000  Level FlightAware ADS-B
Thu 06:57:27 AM 48.5043 2.4697 285° West 458 527 32,000  Level FlightAware ADS-B
Thu 06:58:13 AM 48.5294 2.3287 285° West 460 529 32,000  Level FlightAware ADS-B
Thu 06:58:45 AM 48.5463 2.2311 285° West 460 529 32,000  Level FlightAware ADS-B
Thu 06:59:40 AM 48.5734 2.0610 284° West 460 529 32,000 -1,233 Level FlightAware ADS-B
Thu 06:59:58 AM 48.5842 1.9785 284° West 444 511 30,500  Descending FlightAware UK
Thu 07:00:18 AM 48.5915 1.9406 284° West 463 533 32,000  Climbing FlightAware ADS-B
Thu 07:00:34 AM 48.5992 1.8645 284° West 446 513 30,500  Descending FlightAware UK
Thu 07:00:49 AM 48.6058 1.8435 284° West 464 534 32,000  Climbing FlightAware ADS-B
Thu 07:01:16 AM 48.6186 1.7308 284° West 446 513 30,500  Descending FlightAware UK
Thu 07:01:23 AM 48.6217 1.7353 284° West 465 535 32,000  Climbing FlightAware ADS-B
Thu 07:01:40 AM 48.6298 1.6553 284° West 448 516 30,500  Descending FlightAware UK
Thu 07:02:02 AM 48.6390 1.6140 284° West 468 539 32,000 3,103 Climbing FlightAware ADS-B
Thu 07:02:09 AM 48.6428 1.5904 284° West 467 537 32,000 -2,813 Level FlightAware ADS-B
Thu 07:02:34 AM 48.6547 1.4826 284° West 450 518 30,500 -1,837 Descending FlightAware UK
Thu 07:02:58 AM 48.6659 1.4057 282° West 450 518 30,500  Level FlightAware UK
Thu 07:03:16 AM 48.6743 1.3479 282° West 450 518 30,500 3,103 Level FlightAware UK
Thu 07:03:27 AM 48.6790 1.3500 282° West 469 540 32,000  Climbing FlightAware ADS-B
Thu 07:03:52 AM 48.6907 1.2320 282° West 452 520 30,500  Descending FlightAware UK
Thu 07:04:07 AM 48.6980 1.2190 282° West 469 540 32,000  Climbing FlightAware ADS-B
Thu 07:04:22 AM 48.7046 1.1354 282° West 450 518 30,500 -2,727 Descending FlightAware UK
Thu 07:04:40 AM 48.7130 1.0777 282° West 450 518 30,500 4,500 Level FlightAware UK
Thu 07:04:42 AM 48.7150 1.1030 282° West 469 540 32,000  Climbing FlightAware ADS-B
Thu 07:04:58 AM 48.7211 1.0206 282° West 452 520 30,500  Descending FlightAware UK
Thu 07:05:32 AM 48.7360 0.9560 282° West 468 539 32,000  Climbing FlightAware ADS-B
Thu 07:05:58 AM 48.7486 0.8289 282° West 454 522 30,500  Descending FlightAware UK
Thu 07:06:12 AM 48.7550 0.8270 282° West 465 535 32,000  Climbing FlightAware ADS-B
Thu 07:06:28 AM 48.7623 0.7333 282° West 454 522 30,500 -2,647 Descending FlightAware UK
Thu 07:06:46 AM 48.7704 0.6760 282° West 454 522 30,500 3,103 Level FlightAware UK
Thu 07:06:57 AM 48.7750 0.6840 282° West 463 533 32,000  Climbing FlightAware ADS-B
Thu 07:07:16 AM 48.7835 0.5806 282° West 456 525 30,500  Descending FlightAware UK
Thu 07:07:37 AM 48.7950 0.5570 282° West 461 531 32,000  Climbing FlightAware ADS-B
Thu 07:08:10 AM 48.8119 0.4126 282° West 450 518 30,500  Descending FlightAware UK
Thu 07:08:17 AM 48.8180 0.4270 282° West 460 529 32,000  Climbing FlightAware ADS-B
Thu 07:08:34 AM 48.8253 0.3397 282° West 448 516 30,500  Descending FlightAware UK
Thu 07:08:57 AM 48.8410 0.3000 282° West 459 528 32,000 1,324 Climbing FlightAware ADS-B
Thu 07:09:42 AM 48.8650 0.1660 285° West 458 527 32,000 -1,500 Level FlightAware ADS-B
Thu 07:09:57 AM 48.8730 0.0800 285° West 450 518 30,500  Descending FlightAware UK
Thu 07:10:27 AM 48.8920 0.0270 285° West 457 526 32,000 1,385 Climbing FlightAware ADS-B
Thu 07:11:02 AM 48.9130 -0.0870 286° West 457 526 32,000 -1,667 Level FlightAware ADS-B
Thu 07:11:21 AM 48.9200 -0.1791 286° West 450 518 30,500 133 Descending FlightAware UK
Thu 07:11:47 AM 48.9380 -0.2230 286° West 455 524 32,100 333 Climbing FlightAware ADS-B
Thu 07:12:15 AM 48.9500 -0.3452 286° West 444 511 30,800 400 Descending FlightAware UK
Thu 07:12:32 AM 48.9620 -0.3560 286° West 453 521 32,400 500 Climbing FlightAware ADS-B
Thu 07:12:51 AM 48.9698 -0.4550 286° West 448 516 31,100 514 Descending FlightAware UK
Thu 07:13:07 AM 48.9810 -0.4640 286° West 455 524 32,700 500 Climbing FlightAware ADS-B
Thu 07:13:39 AM 48.9956 -0.6025 286° West 454 522 31,500 450 Descending FlightAware UK
Thu 07:13:47 AM 49.0030 -0.5850 286° West 456 525 33,000 -200 Climbing FlightAware ADS-B
Thu 07:14:09 AM 49.0117 -0.6952 286° West 454 522 31,400  Descending FlightAware UK
Thu 07:14:37 AM 49.0300 -0.7430 286° West 450 518 33,000 111 Climbing FlightAware ADS-B
Thu 07:15:03 AM 49.0403 -0.8595 286° West 444 511 31,500  Descending FlightAware UK
Thu 07:15:12 AM 49.0480 -0.8430 286° West 448 516 33,000  Climbing FlightAware ADS-B
Thu 07:15:45 AM 49.0622 -0.9866 286° West 448 516 31,500  Descending FlightAware UK
Thu 07:15:57 AM 49.0730 -0.9860 286° West 446 513 33,000  Climbing FlightAware ADS-B
Thu 07:16:15 AM 49.0779 -1.0773 286° West 448 516 31,500 -2,195 Descending FlightAware UK
Thu 07:16:38 AM 49.0904 -1.1490 285° West 446 513 31,500 3,333 Level FlightAware UK
Thu 07:16:42 AM 49.0980 -1.1280 285° West 444 511 33,000  Climbing FlightAware ADS-B
Thu 07:17:02 AM 49.1031 -1.2215 285° West 446 513 31,500  Descending FlightAware UK
Thu 07:17:22 AM 49.1160 -1.2310 285° West 442 509 33,000 1,385 Climbing FlightAware ADS-B
Thu 07:18:07 AM 49.1400 -1.3700 285° West 442 509 33,000  Level FlightAware ADS-B
Thu 07:18:47 AM 49.1620 -1.4990 285° West 442 509 33,000  Level FlightAware ADS-B
Thu 07:19:27 AM 49.1810 -1.6130 284° West 441 507 33,000 -1,579 Level FlightAware ADS-B
Thu 07:19:44 AM 49.1864 -1.7073 284° West 448 516 31,500  Descending FlightAware UK
Thu 07:20:22 AM 49.2090 -1.7800 284° West 440 506 33,000  Climbing FlightAware ADS-B
Thu 07:20:38 AM 49.2132 -1.8697 284° West 450 518 31,500 -2,471 Descending FlightAware UK
Thu 07:20:56 AM 49.2220 -1.9233 284° West 448 516 31,600 4,250 Climbing FlightAware UK
Thu 07:21:02 AM 49.2300 -1.9090 284° West 437 503 33,200 571 Climbing FlightAware ADS-B
Thu 07:21:38 AM 49.2427 -2.0494 284° West 446 513 32,000 -1,222 Descending FlightAware UK
Thu 07:21:56 AM 49.2509 -2.1031 283° West 444 511 32,100 500 Climbing FlightAware UK
Thu 07:22:14 AM 49.2591 -2.1565 283° West 442 509 32,300 3,484 Climbing FlightAware UK
Thu 07:22:27 AM 49.2700 -2.1600 283° West 434 499 33,900 286 Climbing FlightAware ADS-B
Thu 07:22:56 AM 49.2796 -2.2795 283° West 446 513 32,500 133 Descending FlightAware UK
Thu 07:23:12 AM 49.2870 -2.2620 283° West 435 501 34,000 -143 Climbing FlightAware ADS-B
Thu 07:23:38 AM 49.2997 -2.4048 283° West 448 516 32,400  Descending FlightAware UK
Thu 07:23:57 AM 49.3080 -2.3940 283° West 438 504 34,000 146 Climbing FlightAware ADS-B
Thu 07:24:19 AM 49.3193 -2.5303 283° West 448 516 32,500  Descending FlightAware UK
Thu 07:24:32 AM 49.3240 -2.4960 283° West 440 506 34,000  Climbing FlightAware ADS-B
Thu 07:24:49 AM 49.3334 -2.6210 283° West 450 518 32,500 -1,915 Descending FlightAware UK
Thu 07:25:19 AM 49.3477 -2.7118 284° West 450 518 32,500 2,368 Level FlightAware UK
Thu 07:25:27 AM 49.3530 -2.6820 284° West 440 506 34,000 1,552 Climbing FlightAware ADS-B
Thu 07:26:17 AM 49.3760 -2.8300 283° West 441 507 34,000 -1,286 Level FlightAware ADS-B
Thu 07:26:37 AM 49.3849 -2.9467 283° West 452 520 32,500  Descending FlightAware UK
Thu 07:26:47 AM 49.3850 -2.8880 283° West 440 506 34,000  Climbing FlightAware ADS-B
Thu 07:27:13 AM 49.4019 -3.0547 283° West 450 518 32,500  Descending FlightAware UK
Thu 07:27:37 AM 49.4170 -3.0920 283° West 440 506 34,000  Climbing FlightAware ADS-B
Thu 07:27:55 AM 49.4217 -3.1813 283° West 452 520 32,500 -2,500 Descending FlightAware UK
Thu 07:28:13 AM 49.4301 -3.2355 284° West 454 522 32,500 3,333 Level FlightAware UK
Thu 07:28:22 AM 49.4380 -3.2280 284° West 439 505 34,000 1,837 Climbing FlightAware ADS-B
Thu 07:29:02 AM 49.4550 -3.3470 282° West 437 503 34,000 -1,429 Level FlightAware ADS-B
Thu 07:29:25 AM 49.4626 -3.4517 282° West 450 518 32,500  Descending FlightAware UK
Thu 07:29:47 AM 49.4760 -3.4850 282° West 436 502 34,000  Climbing FlightAware ADS-B
Thu 07:30:07 AM 49.4814 -3.5778 282° West 448 516 32,500  Descending FlightAware UK
Thu 07:30:27 AM 49.4940 -3.6060 282° West 436 502 34,000 1,500 Climbing FlightAware ADS-B
Thu 07:31:07 AM 49.5110 -3.7240 283° West 435 501 34,000 -1,552 Level FlightAware ADS-B
Thu 07:31:25 AM 49.5159 -3.8109 283° West 450 518 32,500 -2,143 Descending FlightAware UK
Thu 07:31:49 AM 49.5264 -3.8827 283° West 450 518 32,500 3,333 Level FlightAware UK
Thu 07:31:52 AM 49.5310 -3.8620 283° West 433 498 34,000  Climbing FlightAware ADS-B
Thu 07:32:25 AM 49.5418 -3.9903 283° West 450 518 32,500  Descending FlightAware UK
Thu 07:32:32 AM 49.5470 -3.9800 283° West 432 497 34,000  Climbing FlightAware ADS-B
Thu 07:33:01 AM 49.5573 -4.0976 283° West 450 518 32,500  Descending FlightAware UK
Thu 07:33:12 AM 49.5650 -4.1020 283° West 431 496 34,000  Climbing FlightAware ADS-B
Thu 07:33:54 AM 49.5797 -4.2573 283° West 450 518 32,500  Descending FlightAware UK
Thu 07:33:57 AM 49.5820 -4.2260 283° West 429 494 34,000  Climbing FlightAware ADS-B
Thu 07:34:30 AM 49.6033 -4.3599 283° West 448 516 32,500  Descending FlightAware UK
Thu 07:34:37 AM 49.6090 -4.3490 283° West 428 493 34,000  Climbing FlightAware ADS-B
Thu 07:35:18 AM 49.6522 -4.4845 283° West 448 516 32,500  Descending FlightAware UK
Thu 07:35:22 AM 49.6560 -4.4680 283° West 427 491 34,000 2,045 Climbing FlightAware ADS-B
Thu 07:36:02 AM 49.6980 -4.5710 302° West 426 490 34,000 -1,607 Level FlightAware ADS-B
Thu 07:36:18 AM 49.7162 -4.6372 302° West 450 518 32,500  Descending FlightAware UK
Thu 07:36:42 AM 49.7390 -4.6720 302° West 425 489 34,000  Climbing FlightAware ADS-B
Thu 07:37:06 AM 49.7666 -4.7599 302° West 446 513 32,500 -2,143 Descending FlightAware UK
Thu 07:37:24 AM 49.7852 -4.8061 302° West 446 513 32,500 4,286 Level FlightAware UK
Thu 07:37:27 AM 49.7860 -4.7890 302° West 424 488 34,000  Climbing FlightAware ADS-B
Thu 07:37:42 AM 49.8037 -4.8523 302° West 446 513 32,500 -2,727 Descending FlightAware UK
Thu 07:38:00 AM 49.8222 -4.8984 302° West 444 511 32,500 3,600 Level FlightAware UK
Thu 07:38:07 AM 49.8270 -4.8940 302° West 424 488 34,000  Climbing FlightAware ADS-B
Thu 07:38:36 AM 49.8592 -4.9902 302° West 442 509 32,500  Descending FlightAware UK
Thu 07:38:52 AM 49.8730 -5.0090 302° West 425 489 34,000  Climbing FlightAware ADS-B
Thu 07:39:18 AM 49.9025 -5.0985 302° West 444 511 32,500  Descending FlightAware UK
Thu 07:39:32 AM 49.9130 -5.1100 302° West 427 491 34,000  Climbing FlightAware ADS-B
Thu 07:39:54 AM 49.9397 -5.1918 302° West 446 513 32,500 -2,250 Descending FlightAware UK
Thu 07:40:12 AM 49.9583 -5.2388 302° West 446 513 32,500 5,000 Level FlightAware UK
Thu 07:40:12 AM 49.9550 -5.2180 302° West 428 493 34,000  Climbing FlightAware ADS-B
Thu 07:40:30 AM 49.9769 -5.2860 302° West 448 516 32,500 -2,500 Descending FlightAware UK
Thu 07:40:48 AM 49.9957 -5.3332 302° West 448 516 32,500 3,333 Level FlightAware UK
Thu 07:40:57 AM 50.0020 -5.3370 302° West 431 496 34,000  Climbing FlightAware ADS-B
Thu 07:41:12 AM 50.0206 -5.3964 302° West 450 518 32,500 -2,727 Descending FlightAware UK
Thu 07:41:30 AM 50.0392 -5.4439 301° West 452 520 32,500 3,600 Level FlightAware UK
Thu 07:41:37 AM 50.0420 -5.4400 301° West 431 496 34,000  Climbing FlightAware ADS-B
Thu 07:41:54 AM 50.0640 -5.5074 301° West 450 518 32,500 -2,571 Descending FlightAware UK
Thu 07:42:12 AM 50.0827 -5.5550 301° West 448 516 32,500 3,214 Level FlightAware UK
Thu 07:42:22 AM 50.0890 -5.5620 301° West 431 496 34,000  Climbing FlightAware ADS-B
Thu 07:42:42 AM 50.1139 -5.6342 301° West 450 518 32,500 -2,368 Descending FlightAware UK
Thu 07:43:00 AM 50.1326 -5.6818 302° West 448 516 32,500 4,500 Level FlightAware UK
Thu 07:43:02 AM 50.1300 -5.6670 302° West 432 497 34,000  Climbing FlightAware ADS-B
Thu 07:43:18 AM 50.1512 -5.7296 302° West 450 518 32,500 -2,647 Descending FlightAware UK
Thu 07:43:36 AM 50.1697 -5.7775 301° West 450 518 32,500 3,750 Level FlightAware UK
Thu 07:43:42 AM 50.1710 -5.7750 301° West 432 497 34,000  Climbing FlightAware ADS-B
Thu 07:44:00 AM 50.1946 -5.8411 301° West 450 518 32,500 -2,500 Descending FlightAware UK
Thu 07:44:18 AM 50.2133 -5.8890 301° West 452 520 32,500 3,333 Level FlightAware UK
Thu 07:44:27 AM 50.2170 -5.8930 301° West 432 497 34,000  Climbing FlightAware ADS-B
Thu 07:44:42 AM 50.2380 -5.9523 301° West 452 520 32,500 -2,727 Descending FlightAware UK
Thu 07:45:00 AM 50.2567 -6.0001 301° West 452 520 32,500 3,600 Level FlightAware UK
Thu 07:45:07 AM 50.2570 -5.9980 301° West 432 497 34,000  Climbing FlightAware ADS-B
Thu 07:45:24 AM 50.2816 -6.0638 301° West 452 520 32,500  Descending FlightAware UK
Thu 07:45:47 AM 50.2980 -6.1060 301° West 431 496 34,000  Climbing FlightAware ADS-B
Thu 07:45:48 AM 50.3063 -6.1276 301° West 450 518 32,500 -4,737 Descending FlightAware UK
Thu 07:46:06 AM 50.3246 -6.1756 301° West 452 520 32,500  Level FlightAware UK
Thu 07:46:24 AM 50.3429 -6.2235 301° West 452 520 32,500 3,462 Level FlightAware UK
Thu 07:46:32 AM 50.3450 -6.2290 301° West 429 494 34,000  Climbing FlightAware ADS-B
Thu 07:46:48 AM 50.3674 -6.2872 301° West 452 520 32,500 -2,647 Descending FlightAware UK
Thu 07:47:06 AM 50.3856 -6.3351 301° West 452 520 32,500 3,750 Level FlightAware UK
Thu 07:47:12 AM 50.3830 -6.3300 301° West 428 493 34,000  Climbing FlightAware ADS-B
Thu 07:47:30 AM 50.4099 -6.3987 301° West 450 518 32,500 -2,500 Descending FlightAware UK
Thu 07:47:48 AM 50.4280 -6.4464 301° West 450 518 32,500 3,333 Level FlightAware UK
Thu 07:47:57 AM 50.4270 -6.4480 301° West 426 490 34,000  Climbing FlightAware ADS-B
Thu 07:48:12 AM 50.4522 -6.5098 301° West 450 518 32,500 -2,727 Descending FlightAware UK
Thu 07:48:30 AM 50.4703 -6.5573 301° West 452 520 32,500 3,600 Level FlightAware UK
Thu 07:48:37 AM 50.4680 -6.5560 301° West 424 488 34,000  Climbing FlightAware ADS-B
Thu 07:48:54 AM 50.4940 -6.6206 301° West 452 520 32,500 -2,571 Descending FlightAware UK
Thu 07:49:12 AM 50.5119 -6.6681 301° West 450 518 32,500 3,214 Level FlightAware UK
Thu 07:49:22 AM 50.5110 -6.6730 301° West 423 487 34,000  Climbing FlightAware ADS-B
Thu 07:49:42 AM 50.5418 -6.7472 301° West 444 511 32,500 -2,368 Descending FlightAware UK
Thu 07:50:00 AM 50.5595 -6.7947 300° West 444 511 32,500 3,600 Level FlightAware UK
Thu 07:50:07 AM 50.5560 -6.7940 300° West 422 486 34,000  Climbing FlightAware ADS-B
Thu 07:50:24 AM 50.5831 -6.8582 300° West 446 513 32,500 -2,571 Descending FlightAware UK
Thu 07:50:42 AM 50.6008 -6.9059 300° West 446 513 32,500 3,913 Level FlightAware UK
Thu 07:50:47 AM 50.5970 -6.9050 300° West 422 486 34,000  Climbing FlightAware ADS-B
Thu 07:51:06 AM 50.6243 -6.9695 300° West 446 513 32,500 -2,432 Descending FlightAware UK
Thu 07:51:24 AM 50.6419 -7.0173 300° West 444 511 32,500 4,286 Level FlightAware UK
Thu 07:51:27 AM 50.6330 -7.0050 300° West 422 486 34,000  Climbing FlightAware ADS-B
Thu 07:51:42 AM 50.6593 -7.0647 300° West 446 513 32,500 -2,727 Descending FlightAware UK
Thu 07:52:00 AM 50.6768 -7.1126 300° West 446 513 32,500 3,600 Level FlightAware UK
Thu 07:52:07 AM 50.6740 -7.1180 300° West 422 486 34,000  Climbing FlightAware ADS-B
Thu 07:52:36 AM 50.7119 -7.2086 300° West 446 513 32,500  Descending FlightAware UK
Thu 07:52:52 AM 50.7190 -7.2420 300° West 422 486 34,000  Climbing FlightAware ADS-B
Thu 07:53:12 AM 50.7471 -7.3046 300° West 448 516 32,500 -2,368 Descending FlightAware UK
Thu 07:53:30 AM 50.7647 -7.3525 300° West 446 513 32,500  Level FlightAware UK
Thu 07:53:48 AM 50.7822 -7.4006 300° West 446 513 32,500  Level FlightAware UK
Thu 07:54:06 AM 50.7999 -7.4485 300° West 446 513 32,500  Level FlightAware UK
Thu 07:54:30 AM 50.8233 -7.5125 300° West 448 516 32,500  Level FlightAware UK
Thu 07:54:48 AM 50.8409 -7.5605 300° West 446 513 32,500 3,333 Level FlightAware UK
Thu 07:54:57 AM 50.8420 -7.5800 300° West 421 484 34,000  Climbing FlightAware ADS-B
Thu 07:55:12 AM 50.8642 -7.6246 300° West 446 513 32,500 -2,727 Descending FlightAware UK
Thu 07:55:30 AM 50.8815 -7.6729 300° West 446 513 32,500 3,000 Level FlightAware UK
Thu 07:55:42 AM 50.8840 -7.6980 300° West 421 484 34,000  Climbing FlightAware ADS-B
Thu 07:56:00 AM 50.9103 -7.7533 300° West 448 516 32,500 -2,500 Descending FlightAware UK
Thu 07:56:18 AM 50.9277 -7.8015 300° West 448 516 32,500  Level FlightAware UK
Thu 07:56:36 AM 50.9451 -7.8497 300° West 448 516 32,500 2,647 Level FlightAware UK
Thu 07:56:52 AM 50.9510 -7.8850 300° West 420 483 34,000  Climbing FlightAware ADS-B
Thu 07:57:12 AM 50.9798 -7.9460 300° West 450 518 32,500 -2,368 Descending FlightAware UK
Thu 07:57:30 AM 50.9970 -7.9943 300° West 450 518 32,500 4,500 Level FlightAware UK
Thu 07:57:32 AM 50.9880 -7.9890 300° West 419 482 34,000  Climbing FlightAware ADS-B
Thu 07:57:48 AM 51.0141 -8.0424 300° West 450 518 32,500 -2,647 Descending FlightAware UK
Thu 07:58:06 AM 51.0308 -8.0910 299° West 450 518 32,500  Level FlightAware UK
Thu 07:58:24 AM 51.0466 -8.1401 297° West 450 518 32,500 4,286 Level FlightAware UK
Thu 07:58:27 AM 51.0310 -8.1190 297° West 414 476 34,000  Climbing FlightAware ADS-B
Thu 07:58:42 AM 51.0621 -8.1894 297° West 450 518 32,500 -2,727 Descending FlightAware UK
Thu 07:59:00 AM 51.0773 -8.2382 296° West 448 516 32,500 3,600 Level FlightAware UK
Thu 07:59:07 AM 51.0720 -8.2480 296° West 415 478 34,000  Climbing FlightAware ADS-B
Thu 07:59:24 AM 51.0980 -8.3037 296° West 444 511 32,500 -2,571 Descending FlightAware UK
Thu 07:59:42 AM 51.1139 -8.3525 298° West 446 513 32,500 3,214 Level FlightAware UK
Thu 07:59:52 AM 51.1120 -8.3700 298° West 416 479 34,000  Climbing FlightAware ADS-B
Thu 08:00:12 AM 51.1407 -8.4338 298° West 448 516 32,500 -2,368 Descending FlightAware UK
Thu 08:00:30 AM 51.1567 -8.4826 298° West 448 516 32,500 4,500 Level FlightAware UK
Thu 08:00:32 AM 51.1440 -8.4700 298° West 415 478 34,000  Climbing FlightAware ADS-B
Thu 08:00:48 AM 51.1726 -8.5315 298° West 448 516 32,500 -2,647 Descending FlightAware UK
Thu 08:01:06 AM 51.1886 -8.5803 298° West 448 516 32,500 3,103 Level FlightAware UK
Thu 08:01:17 AM 51.1870 -8.6020 298° West 411 473 34,000  Climbing FlightAware ADS-B
Thu 08:01:36 AM 51.2151 -8.6618 298° West 444 511 32,500 -2,432 Descending FlightAware UK
Thu 08:01:54 AM 51.2310 -8.7108 297° West 444 511 32,500 4,286 Level FlightAware UK
Thu 08:01:57 AM 51.2220 -8.7100 297° West 411 473 34,000  Climbing FlightAware ADS-B
Thu 08:02:12 AM 51.2468 -8.7598 297° West 442 509 32,500 -2,727 Descending FlightAware UK
Thu 08:02:30 AM 51.2625 -8.8089 297° West 442 509 32,500 3,600 Level FlightAware UK
Thu 08:02:37 AM 51.2560 -8.8160 297° West 411 473 34,000  Climbing FlightAware ADS-B
Thu 08:02:54 AM 51.2835 -8.8743 297° West 444 511 32,500 -2,571 Descending FlightAware UK
Thu 08:03:12 AM 51.2992 -8.9236 297° West 444 511 32,500 3,913 Level FlightAware UK
Thu 08:03:17 AM 51.2890 -8.9210 297° West 412 474 34,000  Climbing FlightAware ADS-B
Thu 08:03:36 AM 51.3201 -8.9895 297° West 444 511 32,500  Descending FlightAware UK
Thu 08:03:52 AM 51.3190 -9.0140 297° West 413 475 34,000 1,111 Climbing FlightAware ADS-B
Thu 08:04:57 AM 51.3770 -9.2000 297° West 414 476 34,000  Level FlightAware ADS-B
Thu 08:05:37 AM 51.4110 -9.3090 297° West 414 476 34,000  Level FlightAware ADS-B
Thu 08:06:22 AM 51.4510 -9.4360 297° West 415 478 34,000  Level FlightAware ADS-B
Thu 08:07:02 AM 51.4860 -9.5500 296° West 416 479 34,000  Level FlightAware ADS-B
Thu 08:07:42 AM 51.5190 -9.6560 297° West 416 479 34,000  Level FlightAware ADS-B
Thu 08:08:27 AM 51.5570 -9.7810 296° West 416 479 34,000  Level FlightAware ADS-B
Thu 08:09:02 AM 51.5870 -9.8770 297° West 416 479 34,000  Level FlightAware ADS-B
Thu 08:09:52 AM 51.6310 -10.0220 296° West 416 479 34,000  Level FlightAware ADS-B
Thu 08:10:32 AM 51.6650 -10.1330 296° West 416 479 34,000  Level FlightAware ADS-B
Thu 08:11:07 AM 51.6950 -10.2310 296° West 415 478 34,000  Level FlightAware ADS-B
Thu 08:11:47 AM 51.7300 -10.3480 296° West 417 480 34,000  Level FlightAware ADS-B
Thu 08:12:52 AM 51.7790 -10.5140 296° West 416 479 34,000  Level FlightAware ADS-B
Thu 08:13:32 AM 51.8130 -10.6250 296° West 414 476 34,000  Level FlightAware ADS-B
Thu 08:16:00 AM 51.9021 -11.1016 287° West  Level Estimated
Thu 08:17:00 AM 51.9376 -11.2954 287° West  Level Estimated
Thu 08:18:00 AM 51.9728 -11.4895 286° West  Level Estimated
Thu 08:18:27 AM 52.0540 -11.4420 286° West 402 463 34,000  Level FlightAware ADS-B
Thu 08:19:07 AM 52.0840 -11.5460 295° West 401 461 34,000 60 Level FlightAware ADS-B
Thu 08:20:07 AM 52.1340 -11.7200 295° West 398 458 34,100 200 Climbing FlightAware ADS-B
Thu 08:20:37 AM 52.1550 -11.7920 295° West 396 456 34,300 422 Climbing FlightAware ADS-B
Thu 08:23:00 AM 52.2358 -12.2585 286° West  Level Estimated
Thu 08:23:12 AM 52.2740 -12.2160 286° West 398 458 35,400  Level FlightAware ADS-B
Thu 08:24:52 AM 52.3520 -12.4930 286° West 400 460 36,200 600 Climbing FlightAware ADS-B
Thu 08:25:00 AM 52.3337 -12.5698 286° West  Level Estimated
Thu 08:25:42 AM 52.3910 -12.6350 294° West 404 465 36,900  Level FlightAware ADS-B
Thu 08:26:22 AM 52.4230 -12.7480 295° West 408 470 37,000 71 Climbing FlightAware ADS-B
Thu 08:27:07 AM 52.4580 -12.8800 294° West 414 476 37,000  Level FlightAware ADS-B
Thu 08:28:02 AM 52.4960 -13.0220 294° West 411 473 37,000  Level FlightAware ADS-B
Thu 08:28:52 AM 52.5340 -13.1690 293° West 414 476 37,000  Level FlightAware ADS-B
Thu 08:29:42 AM 52.5650 -13.2930 292° West 414 476 37,000  Level FlightAware ADS-B
Thu 08:30:22 AM 52.5890 -13.3920 292° West 414 476 37,000  Level FlightAware ADS-B
Thu 08:31:02 AM 52.6140 -13.4920 292° West 414 476 37,000  Level FlightAware ADS-B
Thu 08:31:42 AM 52.6380 -13.5910 292° West 414 476 37,000  Level FlightAware ADS-B
Thu 08:32:22 AM 52.6620 -13.6910 292° West 414 476 37,000  Level FlightAware ADS-B
Thu 08:33:02 AM 52.6870 -13.7900 293° West 414 476 37,000  Level FlightAware ADS-B
Thu 08:33:52 AM 52.7170 -13.9150 292° West 414 476 37,000  Level FlightAware ADS-B
Thu 08:34:32 AM 52.7420 -14.0150 292° West 414 476 37,000  Level FlightAware ADS-B
Thu 08:35:12 AM 52.7660 -14.1140 292° West 414 476 37,000  Level FlightAware ADS-B
Thu 08:35:52 AM 52.7900 -14.2140 292° West 414 476 37,000  Level FlightAware ADS-B
Thu 08:36:32 AM 52.8150 -14.3140 293° West 414 476 37,000  Level FlightAware ADS-B
Thu 08:37:22 AM 52.8450 -14.4390 292° West 414 476 37,000  Level FlightAware ADS-B
Thu 08:38:02 AM 52.8700 -14.5390 293° West 414 476 37,000  Level FlightAware ADS-B
Thu 08:40:00 AM 52.9264 -14.9346 283° West  Level Estimated
Thu 08:41:00 AM 52.9545 -15.1362 283° West  Level Estimated
Thu 08:42:00 AM 52.9823 -15.3380 283° West  Level Estimated
Thu 08:43:00 AM 53.0097 -15.5395 283° West  Level Estimated
Thu 08:44:00 AM 53.0368 -15.7414 283° West  Level Estimated
Thu 08:45:00 AM 53.0635 -15.9435 282° West  Level Estimated
Thu 08:46:00 AM 53.0899 -16.1458 282° West  Level Estimated
Thu 08:47:00 AM 53.1159 -16.3484 282° West  Level Estimated
Thu 08:48:00 AM 53.1416 -16.5513 282° West  Level Estimated
Thu 08:49:00 AM 53.1668 -16.7526 282° West  Level Estimated
Thu 08:50:00 AM 53.1915 -16.9542 282° West  Level Estimated
Thu 08:51:00 AM 53.2160 -17.1559 282° West  Level Estimated
Thu 08:52:00 AM 53.2401 -17.3580 281° West  Level Estimated
Thu 08:53:00 AM 53.2639 -17.5602 281° West  Level Estimated
Thu 08:54:00 AM 53.2873 -17.7626 281° West  Level Estimated
Thu 08:55:00 AM 53.3104 -17.9653 281° West  Level Estimated
Thu 08:56:00 AM 53.3331 -18.1682 281° West  Level Estimated
Thu 08:57:00 AM 53.3555 -18.3713 281° West  Level Estimated
Thu 08:58:00 AM 53.3775 -18.5747 280° West  Level Estimated
Thu 08:59:00 AM 53.3992 -18.7782 280° West  Level Estimated
Thu 09:00:00 AM 53.4206 -18.9819 280° West  Level Estimated
Thu 09:01:00 AM 53.4416 -19.1859 280° West  Level Estimated
Thu 09:02:00 AM 53.4622 -19.3900 280° West  Level Estimated
Thu 09:03:00 AM 53.4826 -19.5944 280° West  Level Estimated
Thu 09:04:00 AM 53.5025 -19.7989 279° West  Level Estimated
Thu 09:05:00 AM 53.5221 -20.0036 279° West  Level Estimated
Thu 09:06:00 AM 53.5414 -20.2085 279° West  Level Estimated
Thu 09:07:00 AM 53.5603 -20.4136 279° West  Level Estimated
Thu 09:07:00 AM 54.0000 -20.0000 274° West 431 496 37,000  Level ETMS Enhanced Traffic Management System
Thu 09:08:00 AM 53.5788 -20.6189 279° West  Level Estimated
Thu 09:09:00 AM 53.5971 -20.8244 279° West  Level Estimated
Thu 09:10:00 AM 53.6149 -21.0300 278° West  Level Estimated
Thu 09:11:00 AM 53.6324 -21.2358 278° West  Level Estimated
Thu 09:12:00 AM 53.6496 -21.4418 278° West  Level Estimated
Thu 09:13:00 AM 53.6664 -21.6479 278° West  Level Estimated
Thu 09:14:00 AM 54.0567 -21.6296 273° West 431 496 37,000  Level FlightAware Transoceanic
Thu 09:15:00 AM 54.0622 -21.8336 273° West 431 496 37,000  Level FlightAware Transoceanic
Thu 09:16:00 AM 54.0674 -22.0376 272° West 431 496 37,000  Level FlightAware Transoceanic
Thu 09:17:00 AM 54.0723 -22.2417 272° West 431 496 37,000  Level FlightAware Transoceanic
Thu 09:18:00 AM 54.0768 -22.4458 272° West 431 496 37,000  Level FlightAware Transoceanic
Thu 09:19:00 AM 54.0809 -22.6500 272° West 431 496 37,000  Level FlightAware Transoceanic
Thu 09:20:00 AM 54.0847 -22.8542 272° West 431 496 37,000  Level FlightAware Transoceanic
Thu 09:21:00 AM 54.0882 -23.0585 272° West 431 496 37,000  Level FlightAware Transoceanic
Thu 09:22:00 AM 54.0913 -23.2628 271° West 431 496 37,000  Level FlightAware Transoceanic
Thu 09:23:00 AM 54.0941 -23.4671 271° West 431 496 37,000  Level FlightAware Transoceanic
Thu 09:24:00 AM 54.0965 -23.6714 271° West 431 496 37,000  Level FlightAware Transoceanic
Thu 09:25:00 AM 54.0986 -23.8758 271° West 431 496 37,000  Level FlightAware Transoceanic
Thu 09:26:00 AM 54.1003 -24.0802 271° West 431 496 37,000  Level FlightAware Transoceanic
Thu 09:27:00 AM 54.1017 -24.2845 271° West 431 496 37,000  Level FlightAware Transoceanic
Thu 09:28:00 AM 54.1027 -24.4890 270° West 431 496 37,000  Level FlightAware Transoceanic
Thu 09:29:00 AM 54.1034 -24.6934 270° West 431 496 37,000  Level FlightAware Transoceanic
Thu 09:30:00 AM 54.1038 -24.8978 270° West 431 496 37,000  Level FlightAware Transoceanic
Thu 09:31:00 AM 54.1038 -25.1022 270° West 431 496 37,000  Level FlightAware Transoceanic
Thu 09:32:00 AM 54.1034 -25.3066 270° West 431 496 37,000  Level FlightAware Transoceanic
Thu 09:33:00 AM 54.1027 -25.5110 270° West 431 496 37,000  Level FlightAware Transoceanic
Thu 09:34:00 AM 54.1017 -25.7155 269° West 431 496 37,000  Level FlightAware Transoceanic
Thu 09:35:00 AM 54.1003 -25.9198 269° West 431 496 37,000  Level FlightAware Transoceanic
Thu 09:36:00 AM 54.0986 -26.1242 269° West 431 496 37,000  Level FlightAware Transoceanic
Thu 09:37:00 AM 54.0965 -26.3286 269° West 431 496 37,000  Level FlightAware Transoceanic
Thu 09:38:00 AM 54.0941 -26.5329 269° West 431 496 37,000  Level FlightAware Transoceanic
Thu 09:39:00 AM 54.0913 -26.7372 269° West 431 496 37,000  Level FlightAware Transoceanic
Thu 09:40:00 AM 54.0882 -26.9415 268° West 431 496 37,000  Level FlightAware Transoceanic
Thu 09:41:00 AM 54.0847 -27.1458 268° West 431 496 37,000  Level FlightAware Transoceanic
Thu 09:42:00 AM 54.0809 -27.3500 268° West 431 496 37,000  Level FlightAware Transoceanic
Thu 09:43:00 AM 54.0768 -27.5542 268° West 431 496 37,000  Level FlightAware Transoceanic
Thu 09:44:00 AM 54.0723 -27.7583 268° West 431 496 37,000  Level FlightAware Transoceanic
Thu 09:45:00 AM 54.0674 -27.9624 268° West 431 496 37,000  Level FlightAware Transoceanic
Thu 09:46:00 AM 54.0622 -28.1664 267° West 431 496 37,000  Level FlightAware Transoceanic
Thu 09:47:00 AM 54.0567 -28.3704 267° West 431 496 37,000  Level FlightAware Transoceanic
Thu 09:48:00 AM 54.0508 -28.5743 267° West 431 496 37,000  Level FlightAware Transoceanic
Thu 09:49:00 AM 54.0446 -28.7782 267° West 431 496 37,000  Level FlightAware Transoceanic
Thu 09:50:00 AM 54.0380 -28.9820 267° West 431 496 37,000  Level FlightAware Transoceanic
Thu 09:51:00 AM 54.0311 -29.1858 267° West 431 496 37,000  Level FlightAware Transoceanic
Thu 09:52:00 AM 54.0238 -29.3894 266° West 431 496 37,000  Level FlightAware Transoceanic
Thu 09:53:00 AM 54.0162 -29.5930 266° West 431 496 37,000  Level FlightAware Transoceanic
Thu 09:54:00 AM 54.0083 -29.7966 266° West 431 496 37,000  Level FlightAware Transoceanic
Thu 09:55:00 AM 53.9998 -30.0059 266° West  Level FlightAware Approximate
Thu 09:56:00 AM 54.0005 -30.0117 274° West  Level FlightAware Approximate
Thu 09:57:00 AM 54.0089 -30.2210 274° West  Level FlightAware Approximate
Thu 09:58:00 AM 54.0170 -30.4304 274° West  Level FlightAware Approximate
Thu 09:59:00 AM 54.0247 -30.6399 274° West  Level FlightAware Approximate
Thu 10:00:00 AM 54.0320 -30.8495 273° West  Level FlightAware Approximate
Thu 10:01:00 AM 54.0390 -31.0591 273° West  Level FlightAware Approximate
Thu 10:02:00 AM 54.0456 -31.2688 273° West  Level FlightAware Approximate
Thu 10:03:00 AM 54.0518 -31.4786 273° West  Level FlightAware Approximate
Thu 10:04:00 AM 54.0578 -31.6884 273° West  Level FlightAware Approximate
Thu 10:04:58 AM 54.0000 -30.0000 274° West 480 552 37,000  Level ETMS Enhanced Traffic Management System
Thu 10:05:00 AM 54.0634 -31.8983 273° West  Level FlightAware Approximate
Thu 10:06:00 AM 54.0686 -32.1082 273° West  Level FlightAware Approximate
Thu 10:07:00 AM 54.0736 -32.3200 272° West  Level FlightAware Approximate
Thu 10:08:00 AM 54.0781 -32.5318 272° West  Level FlightAware Approximate
Thu 10:09:00 AM 54.0823 -32.7437 272° West  Level FlightAware Approximate
Thu 10:10:00 AM 54.0860 -32.9556 272° West  Level FlightAware Approximate
Thu 10:11:00 AM 54.0961 -33.6343 271° West 480 552 37,000  Level FlightAware Transoceanic
Thu 10:12:00 AM 54.0984 -33.8618 271° West 480 552 37,000  Level FlightAware Transoceanic
Thu 10:13:00 AM 54.1004 -34.0894 271° West 480 552 37,000  Level FlightAware Transoceanic
Thu 10:14:00 AM 54.1019 -34.3171 271° West 480 552 37,000  Level FlightAware Transoceanic
Thu 10:15:00 AM 54.1030 -34.5447 270° West 480 552 37,000  Level FlightAware Transoceanic
Thu 10:16:00 AM 54.1036 -34.7724 270° West 480 552 37,000  Level FlightAware Transoceanic
Thu 10:17:00 AM 54.1038 -35.0000 270° West 480 552 37,000  Level FlightAware Transoceanic
Thu 10:18:00 AM 54.1036 -35.2276 270° West 480 552 37,000  Level FlightAware Transoceanic
Thu 10:19:00 AM 54.1030 -35.4553 270° West 480 552 37,000  Level FlightAware Transoceanic
Thu 10:20:00 AM 54.1019 -35.6829 269° West 480 552 37,000  Level FlightAware Transoceanic
Thu 10:21:00 AM 54.1004 -35.9106 269° West 480 552 37,000  Level FlightAware Transoceanic
Thu 10:22:00 AM 54.0984 -36.1382 269° West 480 552 37,000  Level FlightAware Transoceanic
Thu 10:23:00 AM 54.0961 -36.3657 269° West 480 552 37,000  Level FlightAware Transoceanic
Thu 10:24:00 AM 54.0933 -36.5933 269° West 480 552 37,000  Level FlightAware Transoceanic
Thu 10:25:00 AM 54.0901 -36.8208 269° West 480 552 37,000  Level FlightAware Transoceanic
Thu 10:26:00 AM 54.0864 -37.0483 268° West 480 552 37,000  Level FlightAware Transoceanic
Thu 10:27:00 AM 54.0823 -37.2757 268° West 480 552 37,000  Level FlightAware Transoceanic
Thu 10:28:00 AM 54.0778 -37.5031 268° West 480 552 37,000  Level FlightAware Transoceanic
Thu 10:29:00 AM 54.0729 -37.7305 268° West 480 552 37,000  Level FlightAware Transoceanic
Thu 10:30:00 AM 54.0675 -37.9577 268° West 480 552 37,000  Level FlightAware Transoceanic
Thu 10:31:00 AM 54.0617 -38.1850 267° West 480 552 37,000  Level FlightAware Transoceanic
Thu 10:32:00 AM 54.0555 -38.4121 267° West 480 552 37,000  Level FlightAware Transoceanic
Thu 10:33:00 AM 54.0489 -38.6392 267° West 480 552 37,000  Level FlightAware Transoceanic
Thu 10:34:00 AM 54.0418 -38.8662 267° West 480 552 37,000  Level FlightAware Transoceanic
Thu 10:35:00 AM 54.0343 -39.0932 267° West 480 552 37,000  Level FlightAware Transoceanic
Thu 10:36:00 AM 54.0263 -39.3200 267° West 480 552 37,000  Level FlightAware Transoceanic
Thu 10:37:00 AM 54.0180 -39.5468 266° West 480 552 37,000  Level FlightAware Transoceanic
Thu 10:38:00 AM 54.0092 -39.7734 266° West 480 552 37,000  Level FlightAware Transoceanic
Thu 10:39:00 AM 54.0006 -39.9845 266° West  Level FlightAware Approximate
Thu 10:40:00 AM 53.9917 -40.1956 266° West  Level FlightAware Approximate
Thu 10:41:00 AM 53.9895 -40.1797 264° West  Level FlightAware Approximate
Thu 10:42:00 AM 53.9769 -40.3901 264° West  Level FlightAware Approximate
Thu 10:42:44 AM 54.0000 -40.0000 265° West 482 555 37,000  Level ETMS Enhanced Traffic Management System
Thu 10:43:00 AM 53.9639 -40.6004 264° West  Level FlightAware Approximate
Thu 10:44:00 AM 53.9505 -40.8105 264° West  Level FlightAware Approximate
Thu 10:45:00 AM 53.9368 -41.0205 264° West  Level FlightAware Approximate
Thu 10:46:00 AM 53.9227 -41.2309 264° West  Level FlightAware Approximate
Thu 10:47:00 AM 53.9082 -41.4411 263° West  Level FlightAware Approximate
Thu 10:48:00 AM 53.8673 -42.0349 263° West 482 555 37,000  Level FlightAware Transoceanic
Thu 10:49:00 AM 53.8505 -42.2602 263° West 482 555 37,000  Level FlightAware Transoceanic
Thu 10:50:00 AM 53.8332 -42.4853 262° West 482 555 37,000  Level FlightAware Transoceanic
Thu 10:51:00 AM 53.8155 -42.7102 262° West 482 555 37,000  Level FlightAware Transoceanic
Thu 10:52:00 AM 53.7974 -42.9348 262° West 482 555 37,000  Level FlightAware Transoceanic
Thu 10:53:00 AM 53.7788 -43.1594 262° West 482 555 37,000  Level FlightAware Transoceanic
Thu 10:54:00 AM 53.7599 -43.3837 262° West 482 555 37,000  Level FlightAware Transoceanic
Thu 10:55:00 AM 53.7405 -43.6077 262° West 482 555 37,000  Level FlightAware Transoceanic
Thu 10:56:00 AM 53.7207 -43.8316 261° West 482 555 37,000  Level FlightAware Transoceanic
Thu 10:57:00 AM 53.7005 -44.0553 261° West 482 555 37,000  Level FlightAware Transoceanic
Thu 10:58:00 AM 53.6799 -44.2788 261° West 482 555 37,000  Level FlightAware Transoceanic
Thu 10:59:00 AM 53.6588 -44.5020 261° West 482 555 37,000  Level FlightAware Transoceanic
Thu 11:00:00 AM 53.6373 -44.7250 261° West 482 555 37,000  Level FlightAware Transoceanic
Thu 11:01:00 AM 53.6155 -44.9478 261° West 482 555 37,000  Level FlightAware Transoceanic
Thu 11:02:00 AM 53.5932 -45.1704 260° West 482 555 37,000  Level FlightAware Transoceanic
Thu 11:03:00 AM 53.5705 -45.3927 260° West 482 555 37,000  Level FlightAware Transoceanic
Thu 11:04:00 AM 53.5474 -45.6147 260° West 482 555 37,000  Level FlightAware Transoceanic
Thu 11:05:00 AM 53.5238 -45.8366 260° West 482 555 37,000  Level FlightAware Transoceanic
Thu 11:06:00 AM 53.4999 -46.0582 260° West 482 555 37,000  Level FlightAware Transoceanic
Thu 11:07:00 AM 53.4756 -46.2795 259° West 482 555 37,000  Level FlightAware Transoceanic
Thu 11:08:00 AM 53.4508 -46.5006 259° West 482 555 37,000  Level FlightAware Transoceanic
Thu 11:09:00 AM 53.4257 -46.7214 259° West 482 555 37,000  Level FlightAware Transoceanic
Thu 11:10:00 AM 53.4001 -46.9419 259° West 482 555 37,000  Level FlightAware Transoceanic
Thu 11:11:00 AM 53.3741 -47.1622 259° West 482 555 37,000  Level FlightAware Transoceanic
Thu 11:12:00 AM 53.3478 -47.3822 259° West 482 555 37,000  Level FlightAware Transoceanic
Thu 11:13:00 AM 53.3210 -47.6020 258° West 482 555 37,000  Level FlightAware Transoceanic
Thu 11:14:00 AM 53.2938 -47.8214 258° West 482 555 37,000  Level FlightAware Transoceanic
Thu 11:15:00 AM 53.2662 -48.0406 258° West 482 555 37,000  Level FlightAware Transoceanic
Thu 11:16:00 AM 53.2382 -48.2595 258° West 482 555 37,000  Level FlightAware Transoceanic
Thu 11:17:00 AM 53.2098 -48.4781 258° West 482 555 37,000  Level FlightAware Transoceanic
Thu 11:18:00 AM 53.1810 -48.6964 258° West 482 555 37,000  Level FlightAware Transoceanic
Thu 11:19:00 AM 53.1519 -48.9144 257° West 482 555 37,000  Level FlightAware Transoceanic
Thu 11:20:00 AM 53.1223 -49.1322 257° West 482 555 37,000  Level FlightAware Transoceanic
Thu 11:21:00 AM 53.0923 -49.3496 257° West 482 555 37,000  Level FlightAware Transoceanic
Thu 11:22:00 AM 53.0619 -49.5667 257° West 482 555 37,000  Level FlightAware Transoceanic
Thu 11:23:00 AM 53.0312 -49.7835 257° West 482 555 37,000  Level FlightAware Transoceanic
Thu 11:24:00 AM 53.0022 -49.9850 257° West  Level FlightAware Approximate
Thu 11:25:00 AM 52.9728 -50.1863 256° West  Level FlightAware Approximate
Thu 11:26:00 AM 52.9612 -50.1641 249° West  Level FlightAware Approximate
Thu 11:26:00 AM 53.0000 -50.0000 250° West 463 533 37,000  Level ETMS Enhanced Traffic Management System
Thu 11:27:00 AM 52.9154 -50.3564 248° West  Level FlightAware Approximate
Thu 11:28:00 AM 52.8692 -50.5484 248° West  Level FlightAware Approximate
Thu 11:28:10 AM 52.8500 -50.5667 249° West 410 472 37,000  Level Gander Center
Thu 11:29:00 AM 52.8229 -50.7395 248° West  Level FlightAware Approximate
Thu 11:29:10 AM 52.8000 -50.7667 248° West 480 552 37,000  Level Gander Center
Thu 11:30:00 AM 52.7762 -50.9302 248° West  Level FlightAware Approximate
Thu 11:30:10 AM 52.7500 -50.9833 249° West 480 552 37,000  Level Gander Center
Thu 11:31:00 AM 52.7292 -51.1204 248° West  Level FlightAware Approximate
Thu 11:31:10 AM 52.7000 -51.1833 248° West 480 552 37,000  Level Gander Center
Thu 11:32:00 AM 52.6433 -51.5993 249° West 463 533 37,000  Level FlightAware Transoceanic
Thu 11:32:10 AM 52.6667 -51.3833 255° West 480 552 37,000  Level Gander Center
Thu 11:33:00 AM 52.5972 -51.7974 249° West 463 533 37,000  Level FlightAware Transoceanic
Thu 11:33:10 AM 52.6167 -51.6000 249° West 480 552 37,000  Level Gander Center
Thu 11:34:10 AM 52.5667 -51.8333 251° West 450 518 37,000  Level Gander Center
Thu 11:35:10 AM 52.5167 -52.0333 248° West 480 552 37,000  Level Gander Center
Thu 11:36:10 AM 52.4667 -52.2333 248° West 480 552 37,000  Level Gander Center
Thu 11:37:10 AM 52.4333 -52.4333 255° West 480 552 37,000  Level Gander Center
Thu 11:37:41 AM 52.3833 -52.5500 235° Southwest 490 564 37,000  Level Gander Center
Thu 11:38:10 AM 52.3833 -52.6333 270° West 490 564 37,000  Level Gander Center
Thu 11:38:41 AM 52.3500 -52.7500 245° Southwest 490 564 37,000  Level Gander Center
Thu 11:39:41 AM 52.3000 -52.9500 248° West 490 564 37,000  Level Gander Center
Thu 11:40:10 AM 52.2833 -53.0500 255° West 490 564 37,000  Level Gander Center
Thu 11:40:41 AM 52.2500 -53.1667 245° Southwest 500 575 37,000  Level Gander Center
Thu 11:41:41 AM 52.2000 -53.3667 248° West 480 552 37,000  Level Gander Center
Thu 11:42:10 AM 52.1667 -53.4500 237° Southwest 490 564 37,000  Level Gander Center
Thu 11:43:10 AM 52.1167 -53.6833 251° West 490 564 37,000  Level Gander Center
Thu 11:43:41 AM 52.0833 -53.7667 237° Southwest 480 552 37,000  Level Gander Center
Thu 11:44:41 AM 52.0333 -53.9833 250° West 480 552 37,000  Level Gander Center
Thu 11:45:10 AM 52.0000 -54.0833 242° Southwest 480 552 37,000  Level Gander Center
Thu 11:45:41 AM 51.9833 -54.1667 252° West 480 552 37,000  Level Gander Center
Thu 11:46:41 AM 51.9167 -54.3667 242° Southwest 480 552 37,000  Level Gander Center
Thu 11:47:41 AM 51.8667 -54.5667 248° West 490 564 37,000  Level Gander Center
Thu 11:48:10 AM 51.8333 -54.6667 242° Southwest 480 552 37,000  Level Gander Center
Thu 11:49:10 AM 51.8000 -54.8667 255° West 490 564 37,000  Level Gander Center
Thu 11:50:10 AM 51.7333 -55.0667 242° Southwest 490 564 37,000  Level Gander Center
Thu 11:51:10 AM 51.6833 -55.2667 248° West 490 564 37,000 50 Level Gander Center
Thu 11:52:10 AM 51.6167 -55.4833 244° Southwest 490 564 37,100 250 Climbing Gander Center
Thu 11:53:10 AM 51.5667 -55.6833 248° West 480 552 37,500 396 Climbing Gander Center
Thu 11:53:41 AM 51.5500 -55.7667 252° West 490 564 37,700 330 Climbing Gander Center
Thu 11:54:41 AM 51.4833 -55.9667 242° Southwest 490 564 38,000 150 Climbing Gander Center
Thu 11:55:41 AM 51.4333 -56.1833 250° West 500 575 38,000  Level Gander Center
Thu 11:56:10 AM 51.4000 -56.2667 237° Southwest 500 575 38,000  Level Gander Center
Thu 11:56:41 AM 51.3667 -56.3833 245° Southwest 500 575 38,000  Level Gander Center
Thu 11:57:41 AM 51.3167 -56.5667 246° West 500 575 38,000  Level Gander Center
Thu 11:58:41 AM 51.2500 -56.7833 244° Southwest 490 564 38,000  Level Gander Center
Thu 11:59:10 AM 51.2167 -56.8667 237° Southwest 490 564 38,000  Level Gander Center
Thu 12:00:10 PM 51.1667 -57.0667 248° West 490 564 38,000  Level Gander Center
Thu 12:01:10 PM 51.1000 -57.2667 242° Southwest 490 564 38,000  Level Gander Center
Thu 12:02:10 PM 51.0500 -57.4500 247° West 500 575 38,000  Level Gander Center
Thu 12:03:10 PM 50.9833 -57.6667 244° Southwest 500 575 38,000  Level Gander Center
Thu 12:03:41 PM 50.9500 -57.7500 238° Southwest 500 575 38,000  Level Gander Center
Thu 12:04:41 PM 50.8833 -57.9667 244° Southwest 500 575 38,000  Level Gander Center
Thu 12:05:10 PM 50.8667 -58.0500 252° West 500 575 38,000  Level Gander Center
Thu 12:06:10 PM 50.8000 -58.2333 240° Southwest 500 575 38,000  Level Gander Center
Thu 12:07:10 PM 50.7333 -58.4500 244° Southwest 500 575 38,000  Level Gander Center
Thu 12:08:10 PM 50.6667 -58.6500 242° Southwest 510 587 38,000  Level Gander Center
Thu 12:09:10 PM 50.6000 -58.8667 244° Southwest 510 587 38,000  Level Gander Center
Thu 12:10:10 PM 50.5333 -59.0500 240° Southwest 520 598 38,000  Level Gander Center
Thu 12:10:54 PM 50.4833 -59.2167 245° Southwest 520 598 38,000  Level Moncton Center
Thu 12:11:10 PM 50.4667 -59.2667 242° Southwest 520 598 38,000  Level Gander Center
Thu 12:12:10 PM 50.4000 -59.4667 242° Southwest 520 598 38,000  Level Gander Center
Thu 12:13:10 PM 50.3500 -59.6500 247° West 520 598 38,000  Level Gander Center
Thu 12:14:10 PM 50.2667 -59.8667 239° Southwest 520 598 38,000  Level Gander Center
Thu 12:14:54 PM 50.2167 -60.0000 240° Southwest 520 598 38,000  Level Moncton Center
Thu 12:16:10 PM 50.1333 -60.2667 244° Southwest 520 598 38,000  Level Gander Center
Thu 12:17:10 PM 50.0667 -60.4500 241° Southwest 520 598 38,000  Level Gander Center
Thu 12:18:10 PM 49.9833 -60.6500 237° Southwest 520 598 38,000  Level Gander Center
Thu 12:19:10 PM 49.9333 -60.8333 247° West 510 587 38,000  Level Gander Center
Thu 12:19:54 PM 49.8833 -61.0000 245° Southwest 520 598 38,000  Level Moncton Center
Thu 12:20:54 PM 49.8000 -61.2000 237° Southwest 510 587 38,000  Level Moncton Center
Thu 12:21:10 PM 49.7833 -61.2500 243° Southwest 520 598 38,000  Level Gander Center
Thu 12:22:10 PM 49.7167 -61.4333 241° Southwest 520 598 38,000  Level Gander Center
Thu 12:23:10 PM 49.6500 -61.6500 245° Southwest 510 587 38,000  Level Gander Center
Thu 12:24:10 PM 49.5833 -61.8167 238° Southwest 510 587 38,000  Level Gander Center
Thu 12:24:54 PM 49.5333 -61.9667 243° Southwest 510 587 38,000  Level Moncton Center
Thu 12:26:10 PM 49.4333 -62.2000 237° Southwest 520 598 38,000  Level Gander Center
Thu 12:27:10 PM 49.3667 -62.3833 241° Southwest 520 598 38,000  Level Gander Center
Thu 12:28:10 PM 49.3000 -62.5833 243° Southwest 510 587 38,000  Level Gander Center
Thu 12:29:10 PM 49.2167 -62.8000 240° Southwest 520 598 38,000  Level Gander Center
Thu 12:30:10 PM 49.1500 -62.9667 239° Southwest 500 575 38,000  Level Gander Center
Thu 12:30:54 PM 49.1000 -63.1167 243° Southwest 520 598 38,000  Level Moncton Center
Thu 12:31:10 PM 49.0833 -63.1667 243° Southwest 520 598 38,000  Level Gander Center
Thu 12:32:10 PM 49.0167 -63.3500 241° Southwest 520 598 38,000  Level Gander Center
Thu 12:32:54 PM 48.9500 -63.5000 236° Southwest 520 598 38,000  Level Moncton Center
Thu 12:33:54 PM 48.8667 -63.6833 235° Southwest 520 598 38,000  Level Moncton Center
Thu 12:34:54 PM 48.8000 -63.8667 241° Southwest 520 598 38,000  Level Moncton Center
Thu 12:35:54 PM 48.7167 -64.0667 238° Southwest 530 610 38,000  Level Moncton Center
Thu 12:36:54 PM 48.6500 -64.2500 241° Southwest 520 598 38,000  Level Moncton Center
Thu 12:37:54 PM 48.5667 -64.4500 238° Southwest 510 587 38,000  Level Moncton Center
Thu 12:38:54 PM 48.5000 -64.6167 239° Southwest 510 587 38,000  Level Moncton Center
Thu 12:39:54 PM 48.4333 -64.8000 241° Southwest 510 587 38,000  Level Moncton Center
Thu 12:40:54 PM 48.3500 -64.9833 236° Southwest 510 587 38,000  Level Moncton Center
Thu 12:41:54 PM 48.2833 -65.1500 239° Southwest 510 587 38,000  Level Moncton Center
Thu 12:42:54 PM 48.2000 -65.3500 238° Southwest 510 587 38,000  Level Moncton Center
Thu 12:43:10 PM 48.1833 -65.4000 243° Southwest 510 587 38,000  Level Gander Center
Thu 12:44:10 PM 48.1167 -65.5667 239° Southwest 510 587 38,000  Level Gander Center
Thu 12:45:10 PM 48.0167 -65.7500 231° Southwest 510 587 38,000  Level Gander Center
Thu 12:46:10 PM 47.9500 -65.9167 239° Southwest 510 587 38,000  Level Gander Center
Thu 12:46:54 PM 47.8833 -66.0667 237° Southwest 510 587 38,000  Level Moncton Center
Thu 12:47:54 PM 47.8167 -66.2500 242° Southwest 510 587 38,000  Level Moncton Center
Thu 12:48:54 PM 47.7500 -66.4167 239° Southwest 500 575 38,000  Level Moncton Center
Thu 12:49:54 PM 47.6833 -66.6167 244° Southwest 500 575 38,000  Level Moncton Center
Thu 12:56:47 PM 47.2240 -67.7980 244° Southwest 491 565 38,000  Level FlightAware ADS-B
Thu 12:57:27 PM 47.1940 -67.9080 248° West 491 565 38,000  Level FlightAware ADS-B
Thu 12:58:07 PM 47.1560 -68.0490 248° West 491 565 38,000  Level FlightAware ADS-B
Thu 12:58:52 PM 47.1190 -68.1860 248° West 490 564 38,000  Level FlightAware ADS-B
Thu 12:59:32 PM 47.0850 -68.3100 248° West 488 562 38,000  Level FlightAware ADS-B
Thu 01:00:12 PM 47.0510 -68.4340 248° West 488 562 38,000  Level FlightAware ADS-B
Thu 01:00:57 PM 47.0130 -68.5700 248° West 487 560 38,000  Level FlightAware ADS-B
Thu 01:01:37 PM 46.9780 -68.6940 248° West 487 560 38,000  Level FlightAware ADS-B
Thu 01:02:22 PM 46.9400 -68.8280 247° West 486 559 38,000  Level FlightAware ADS-B
Thu 01:03:02 PM 46.9060 -68.9510 248° West 486 559 38,000  Level FlightAware ADS-B
Thu 01:03:37 PM 46.8750 -69.0580 247° West 486 559 38,000  Level FlightAware ADS-B
Thu 01:04:10 PM 46.8333 -69.1667 247° West 490 564 38,000  Level Gander Center
Thu 01:04:50 PM 46.8167 -69.2667 256° West 480 552 38,000  Level Montreal Center
Thu 01:05:44 PM 46.7703 -69.4631 251° West 484 557 38,000  Level Boston Center
Thu 01:06:44 PM 46.7208 -69.6444 248° West 484 557 38,000  Level Boston Center
Thu 01:07:44 PM 46.6686 -69.8194 247° West 484 557 38,000  Level Boston Center
Thu 01:08:44 PM 46.6161 -69.9969 247° West 484 557 38,000  Level Boston Center
Thu 01:09:50 PM 46.5500 -70.1667 241° Southwest 470 541 38,000  Level Montreal Center
Thu 01:10:50 PM 46.4833 -70.3333 240° Southwest 470 541 38,000  Level Montreal Center
Thu 01:11:50 PM 46.4500 -70.5167 255° West 470 541 38,000  Level Montreal Center
Thu 01:12:50 PM 46.3833 -70.6833 240° Southwest 470 541 38,000  Level Montreal Center
Thu 01:13:50 PM 46.3500 -70.8667 255° West 470 541 38,000  Level Montreal Center
Thu 01:14:50 PM 46.2833 -71.0333 240° Southwest 470 541 38,000  Level Montreal Center
Thu 01:15:50 PM 46.2167 -71.1833 237° Southwest 470 541 38,000 -100 Level Montreal Center
Thu 01:16:50 PM 46.1833 -71.3833 257° West 470 541 37,800 -600 Descending Montreal Center
Thu 01:17:50 PM 46.1167 -71.5333 237° Southwest 470 541 36,800 -1,250 Descending Montreal Center
Thu 01:18:50 PM 46.0667 -71.7167 249° West 460 529 35,300 -1,450 Descending Montreal Center
Thu 01:19:50 PM 46.0167 -71.8833 247° West 460 529 33,900 -2,374 Descending Montreal Center
Thu 01:25:42 PM 45.7290 -72.8640 247° West 434 499 19,000 -2,602 Descending FlightAware ADS-B
Thu 01:26:22 PM 45.7170 -72.9800 262° West 432 497 16,900 -2,894 Descending FlightAware ADS-B
Thu 01:27:07 PM 45.7030 -73.1060 261° West 422 486 14,900 -1,976 Descending FlightAware ADS-B
Thu 01:27:47 PM 45.6700 -73.2030 244° Southwest 395 455 14,100 -1,725 Descending FlightAware ADS-B
Thu 01:28:27 PM 45.6320 -73.2900 238° Southwest 383 441 12,600 -2,541 Descending FlightAware ADS-B
Thu 01:29:12 PM 45.5920 -73.3800 238° Southwest 357 411 10,500 -2,486 Descending FlightAware ADS-B
Thu 01:29:37 PM 45.5680 -73.4290 235° Southwest 323 372 9,700 -1,745 Descending FlightAware ADS-B
Thu 01:30:07 PM 45.5390 -73.4730 227° Southwest 297 342 8,900 -1,636 Descending FlightAware ADS-B
Thu 01:30:32 PM 45.5150 -73.5060 224° Southwest 294 338 8,200 -1,333 Descending FlightAware ADS-B
Thu 01:30:52 PM 45.4960 -73.5310 223° Southwest 285 328 7,900 -667 Descending FlightAware ADS-B
Thu 01:31:17 PM 45.4710 -73.5640 223° Southwest 271 312 7,700 -360 Descending FlightAware ADS-B
Thu 01:31:42 PM 45.4490 -73.5920 222° Southwest 251 289 7,600 -450 Descending FlightAware ADS-B
Thu 01:31:57 PM 45.4360 -73.6090 223° Southwest 242 278 7,400 -800 Descending FlightAware ADS-B
Thu 01:32:27 PM 45.4130 -73.6410 224° Southwest 234 269 7,000 -800 Descending FlightAware ADS-B
Thu 01:32:42 PM 45.4020 -73.6560 224° Southwest 233 268 6,800 -1,350 Descending FlightAware ADS-B
Thu 01:33:07 PM 45.3810 -73.6830 222° Southwest 234 269 6,100 -1,500 Descending FlightAware ADS-B
Thu 01:33:22 PM 45.3700 -73.6970 222° Southwest 234 269 5,800 -1,200 Descending FlightAware ADS-B
Thu 01:33:52 PM 45.3460 -73.7290 223° Southwest 231 266 5,200 -1,309 Descending FlightAware ADS-B
Thu 01:34:17 PM 45.3250 -73.7570 223° Southwest 229 264 4,600 -1,200 Descending FlightAware ADS-B
Thu 01:34:47 PM 45.3030 -73.7860 223° Southwest 227 261 4,100 -1,091 Descending FlightAware ADS-B
Thu 01:35:12 PM 45.2840 -73.8110 223° Southwest 225 259 3,600 -545 Descending FlightAware ADS-B
Thu 01:35:42 PM 45.2630 -73.8380 222° Southwest 207 238 3,600  Level FlightAware ADS-B
Thu 01:36:02 PM 45.2490 -73.8570 224° Southwest 206 237 3,600  Level FlightAware ADS-B
Thu 01:36:32 PM 45.2280 -73.8830 221° Southwest 204 235 3,600  Level FlightAware ADS-B
Thu 01:37:02 PM 45.2110 -73.9050 222° Southwest 204 235 3,600  Level FlightAware ADS-B
Thu 01:37:22 PM 45.1930 -73.9310 226° Southwest 205 236 3,600  Level FlightAware ADS-B
Thu 01:37:32 PM 45.1900 -73.9430 250° West 206 237 3,600 -150 Level FlightAware ADS-B
Thu 01:38:02 PM 45.2010 -73.9790 293° West 207 238 3,500 -400 Descending FlightAware ADS-B
Thu 01:38:32 PM 45.2200 -74.0060 315° West 204 235 3,200 -667 Descending FlightAware ADS-B
Thu 01:38:47 PM 45.2360 -74.0150 338° Northwest 195 224 3,000 -450 Descending FlightAware ADS-B
Thu 01:39:12 PM 45.2550 -74.0100 10° North 176 203 2,900 -327 Descending FlightAware ADS-B
Thu 01:39:42 PM 45.2790 -74.0000 16° North 169 194 2,700 -218 Descending FlightAware ADS-B
Thu 01:40:07 PM 45.2950 -73.9860 32° Northeast 160 184 2,700 -150 Level FlightAware ADS-B
Thu 01:40:22 PM 45.3030 -73.9750 44° Northeast 162 186 2,600 -133 Descending FlightAware ADS-B
Thu 01:40:52 PM 45.3190 -73.9550 41° Northeast 162 186 2,600  Level FlightAware ADS-B
Thu 01:41:17 PM 45.3330 -73.9350 45° Northeast 162 186 2,600  Level FlightAware ADS-B
Thu 01:41:32 PM 45.3410 -73.9250 41° Northeast 162 186 2,600 -667 Level FlightAware ADS-B
Thu 01:42:02 PM 45.3580 -73.9030 42° Northeast 162 186 2,100 -873 Descending FlightAware ADS-B
Thu 01:42:27 PM 45.3720 -73.8840 44° Northeast 162 186 1,800 -873 Descending FlightAware ADS-B
Thu 01:42:57 PM 45.3890 -73.8620 42° Northeast 160 184 1,300 -800 Descending FlightAware ADS-B
Thu 01:43:27 PM 45.4040 -73.8430 42° Northeast 156 180 1,000 -764 Descending FlightAware ADS-B
Thu 01:43:52 PM 45.4170 -73.8260 43° Northeast 140 161 600 -900 Descending FlightAware ADS-B
Thu 01:44:07 PM 45.4240 -73.8160 45° Northeast 127 146 400 -600 Descending FlightAware ADS-B
Thu 01:44:32 PM 45.4350 -73.8020 42° Northeast 128 147 200 -480 Descending FlightAware ADS-B
Thu 01:45:02 PM 45.4470 -73.7860 43° Northeast 129 148 -400 Descending FlightAware ADS-B

Login

Don't have an account? Register now (free) for customized features, flight alerts, and more!